Time;durP1;ratioP1;P1;durP2;ratioP2;P2;SDS_P1;SDS_P2;PMS_P1;PMS_P2;Temp;Humidity;BMP_temperature;BMP_pressure;BME280_temperature;BME280_humidity;BME280_pressure;Samples;Min_cycle;Max_cycle;Signal;HPM_P1;HPM_P2
2023/07/19 00:01:57;;;;;;;1.63;0.20;;;;;;;19.67;64.33;101045.38;7362962;19;20644;-61
2023/07/19 00:04:24;;;;;;;1.85;0.63;;;;;;;19.64;64.16;101043.97;7362923;19;20266;-59
2023/07/19 00:06:51;;;;;;;1.33;0.20;;;;;;;19.62;64.69;101043.34;7358249;19;20029;-62
2023/07/19 00:09:19;;;;;;;3.13;0.20;;;;;;;19.61;64.93;101047.03;7357970;19;20014;-59
2023/07/19 00:11:47;;;;;;;1.40;0.60;;;;;;;19.59;64.88;101044.59;7356790;19;20050;-61
2023/07/19 00:14:14;;;;;;;3.78;0.52;;;;;;;19.54;64.23;101033.72;7361255;19;21146;-64
2023/07/19 00:16:41;;;;;;;1.85;0.32;;;;;;;19.57;65.29;101038.63;7362517;19;20013;-62
2023/07/19 00:19:08;;;;;;;1.70;0.30;;;;;;;19.55;64.88;101037.19;7359688;19;20018;-60
2023/07/19 00:21:46;;;;;;;2.20;0.20;;;;;;;19.55;65.15;101037.19;7361320;19;20065;-60
2023/07/19 00:24:14;;;;;;;2.00;0.30;;;;;;;19.56;65.07;101031.63;7357208;19;20195;-60
2023/07/19 00:26:41;;;;;;;1.98;0.30;;;;;;;19.58;64.75;101034.09;7359853;19;20014;-62
2023/07/19 00:29:08;;;;;;;1.63;0.50;;;;;;;19.60;65.06;101040.91;7356725;19;20598;-60
2023/07/19 00:31:35;;;;;;;3.22;0.40;;;;;;;19.60;64.96;101040.91;7363217;19;20026;-61
2023/07/19 00:34:02;;;;;;;2.38;0.30;;;;;;;19.61;64.61;101039.03;7357801;19;20022;-60
2023/07/19 00:36:29;;;;;;;3.03;0.30;;;;;;;19.59;63.67;101041.09;7361741;19;20025;-61
2023/07/19 00:38:56;;;;;;;1.63;0.20;;;;;;;19.58;64.56;101040.28;7355564;19;20857;-60
2023/07/19 00:41:23;;;;;;;4.05;0.20;;;;;;;19.57;63.57;101030.63;7357200;19;20644;-63
2023/07/19 00:43:50;;;;;;;1.83;0.20;;;;;;;19.58;63.98;101042.13;7358019;19;20019;-60
2023/07/19 00:46:19;;;;;;;1.80;0.20;;;;;;;19.56;63.74;101042.31;7358100;19;20119;-60
2023/07/19 00:48:47;;;;;;;4.47;0.20;;;;;;;19.52;63.81;101037.59;7360295;19;20018;-61
2023/07/19 00:51:15;;;;;;;0.50;0.22;;;;;;;19.52;65.12;101037.59;7357406;19;20029;-60
2023/07/19 00:53:42;;;;;;;0.90;0.20;;;;;;;19.50;65.18;101035.16;7354605;19;20018;-62
2023/07/19 00:56:17;;;;;;;1.77;0.20;;;;;;;19.47;64.62;101027.53;7358419;19;20022;-60
2023/07/19 00:58:44;;;;;;;2.40;0.30;;;;;;;19.45;65.01;101031.47;7359179;19;20014;-60
2023/07/19 01:01:12;;;;;;;3.53;0.20;;;;;;;19.41;65.50;101022.97;7357518;19;20007;-61
2023/07/19 01:03:39;;;;;;;1.63;0.25;;;;;;;19.44;65.88;101025.28;7358919;19;20030;-61
2023/07/19 01:06:11;;;;;;;2.40;0.30;;;;;;;19.47;66.18;101021.38;7362441;19;20102;-62
2023/07/19 01:08:38;;;;;;;2.45;0.35;;;;;;;19.48;65.87;101017.69;7356215;19;20087;-60
2023/07/19 01:11:05;;;;;;;2.97;0.52;;;;;;;19.48;64.88;101015.84;7361965;19;20022;-61
2023/07/19 01:13:32;;;;;;;1.90;0.73;;;;;;;19.45;65.39;101013.59;7359582;19;20015;-60
2023/07/19 01:15:59;;;;;;;1.67;0.10;;;;;;;19.46;65.34;101011.72;7359603;19;20019;-61
2023/07/19 01:18:26;;;;;;;3.75;0.30;;;;;;;19.45;65.66;101007.44;7356273;19;20074;-60
2023/07/19 01:20:54;;;;;;;1.73;0.30;;;;;;;19.41;66.47;101019.50;7359442;19;21016;-61
2023/07/19 01:23:23;;;;;;;1.95;0.28;;;;;;;19.41;66.54;101016.81;7358042;19;20021;-61
2023/07/19 01:25:50;;;;;;;1.83;0.22;;;;;;;19.40;66.53;101010.66;7365538;19;20010;-60
2023/07/19 01:28:17;;;;;;;2.08;0.20;;;;;;;19.41;66.00;101011.47;7366007;19;20015;-60
2023/07/19 01:30:44;;;;;;;4.70;0.25;;;;;;;19.43;66.18;101020.94;7364375;19;20018;-60
2023/07/19 01:33:11;;;;;;;2.50;0.20;;;;;;;19.38;66.97;101012.72;7367876;19;20039;-61
2023/07/19 01:35:54;;;;;;;3.15;0.30;;;;;;;19.37;67.40;101008.41;7364594;19;20031;-60
2023/07/19 01:38:20;;;;;;;1.45;0.20;;;;;;;19.38;67.50;101010.06;7361713;19;20115;-60
2023/07/19 01:40:47;;;;;;;4.25;0.30;;;;;;;19.39;68.02;101006.38;7363389;19;20126;-59
2023/07/19 01:43:14;;;;;;;5.50;0.40;;;;;;;19.40;68.17;101002.66;7364049;19;20038;-61
2023/07/19 01:45:42;;;;;;;1.17;0.20;;;;;;;19.41;68.20;101000.81;7365159;19;20018;-60
2023/07/19 01:48:09;;;;;;;1.98;0.50;;;;;;;19.38;68.83;100994.06;7362094;19;20011;-60
2023/07/19 01:50:36;;;;;;;2.28;0.25;;;;;;;19.37;69.48;100994.25;7368381;19;21143;-60
2023/07/19 01:53:03;;;;;;;1.38;0.22;;;;;;;19.33;69.44;100983.16;7360466;19;20006;-61
2023/07/19 01:55:30;;;;;;;2.65;0.28;;;;;;;19.34;69.45;100992.81;7366544;19;20067;-61
2023/07/19 01:57:57;;;;;;;1.80;0.40;;;;;;;19.34;69.60;100992.00;7364732;19;20025;-61
2023/07/19 02:00:24;;;;;;;2.35;0.30;;;;;;;19.34;69.89;100990.16;7362483;19;20118;-59
2023/07/19 02:02:51;;;;;;;2.78;0.20;;;;;;;19.35;70.26;100986.44;7367390;19;20047;-60
2023/07/19 02:05:19;;;;;;;1.65;0.30;;;;;;;19.35;70.45;100983.75;7363888;19;20101;-61
2023/07/19 02:07:46;;;;;;;1.23;0.20;;;;;;;19.35;70.80;100981.09;7364496;19;20519;-59
2023/07/19 02:10:13;;;;;;;4.82;0.77;;;;;;;19.32;70.83;100984.19;7364202;19;20026;-61
2023/07/19 02:12:40;;;;;;;3.38;0.30;;;;;;;19.32;71.23;100970.84;7361049;19;20094;-61
2023/07/19 02:15:07;;;;;;;1.77;0.30;;;;;;;19.32;71.64;100978.03;7360787;19;20018;-61
2023/07/19 02:17:34;;;;;;;5.60;0.43;;;;;;;19.30;71.91;100966.75;7365521;19;20025;-60
2023/07/19 02:20:01;;;;;;;2.53;0.30;;;;;;;19.31;72.92;100965.72;7364208;19;20446;-60
2023/07/19 02:22:28;;;;;;;2.00;0.40;;;;;;;19.33;72.86;100974.34;7365293;19;20014;-61
2023/07/19 02:24:55;;;;;;;1.98;0.32;;;;;;;19.29;73.12;100968.59;7359920;19;20019;-61
2023/07/19 02:27:23;;;;;;;2.47;0.30;;;;;;;19.23;73.65;100964.09;7365730;19;20392;-60
2023/07/19 02:29:50;;;;;;;2.28;0.40;;;;;;;19.21;73.81;100972.28;7362634;19;20019;-60
2023/07/19 02:32:17;;;;;;;3.85;0.35;;;;;;;19.23;74.88;100956.91;7363738;19;20709;-59
2023/07/19 02:34:44;;;;;;;2.45;0.30;;;;;;;19.23;74.70;100961.41;7361156;19;20541;-61
2023/07/19 02:37:11;;;;;;;2.28;0.20;;;;;;;19.23;74.78;100964.09;7360971;19;20006;-59
2023/07/19 02:39:38;;;;;;;3.90;0.40;;;;;;;19.22;75.00;100967.78;7360405;19;20339;-61
2023/07/19 02:42:05;;;;;;;1.65;0.25;;;;;;;19.22;74.97;100973.94;7361429;19;20315;-60
2023/07/19 02:44:32;;;;;;;5.53;0.40;;;;;;;19.23;75.45;100977.44;7364846;19;20024;-61
2023/07/19 02:46:59;;;;;;;2.85;0.40;;;;;;;19.23;76.03;100972.09;7359916;19;20098;-60
2023/07/19 02:49:26;;;;;;;4.28;0.30;;;;;;;19.21;76.21;100971.47;7357788;19;20018;-60
2023/07/19 02:51:53;;;;;;;5.43;0.50;;;;;;;19.17;76.36;100976.41;7364331;19;20613;-61
2023/07/19 02:54:20;;;;;;;3.92;0.40;;;;;;;19.19;76.30;100968.19;7354788;19;20039;-60
2023/07/19 02:56:47;;;;;;;2.67;0.30;;;;;;;19.21;76.58;100972.28;7362195;19;20039;-60
2023/07/19 02:59:13;;;;;;;1.90;0.40;;;;;;;19.23;76.72;100977.44;7360340;19;20094;-59
2023/07/19 03:01:41;;;;;;;5.38;0.60;;;;;;;19.25;77.41;100969.22;7362257;19;20014;-60
2023/07/19 03:04:08;;;;;;;2.08;0.40;;;;;;;19.23;77.12;100970.25;7362440;19;20019;-58
2023/07/19 03:06:35;;;;;;;1.73;0.40;;;;;;;19.23;77.32;100975.59;7363940;19;20023;-60
2023/07/19 03:09:03;;;;;;;3.90;0.45;;;;;;;19.25;77.21;100975.34;7359926;19;20011;-61
2023/07/19 03:11:30;;;;;;;4.32;0.43;;;;;;;19.22;77.64;100981.94;7365393;19;20022;-62
2023/07/19 03:13:57;;;;;;;4.53;0.40;;;;;;;19.20;77.69;100969.81;7362145;19;20019;-60
2023/07/19 03:16:24;;;;;;;2.70;0.50;;;;;;;19.18;77.95;100970.03;7360153;19;21160;-61
2023/07/19 03:18:51;;;;;;;2.15;0.40;;;;;;;19.17;78.01;100971.06;7361484;19;20006;-61
2023/07/19 03:21:20;;;;;;;1.02;0.40;;;;;;;19.14;77.88;100979.50;7361322;19;20033;-61
2023/07/19 03:23:47;;;;;;;4.05;0.40;;;;;;;19.07;78.43;100967.97;7358404;19;20014;-60
2023/07/19 03:26:14;;;;;;;4.60;0.60;;;;;;;19.04;78.83;100968.41;7363150;19;20028;-59
2023/07/19 03:28:41;;;;;;;4.20;0.60;;;;;;;19.03;79.12;100971.28;7360415;19;20723;-60
2023/07/19 03:31:12;;;;;;;5.80;0.50;;;;;;;19.01;79.23;100970.63;7362882;19;20130;-59
2023/07/19 03:33:40;;;;;;;4.18;0.40;;;;;;;19.01;80.10;100976.78;7359944;19;20022;-62
2023/07/19 03:36:07;;;;;;;2.90;0.30;;;;;;;19.02;80.02;100973.13;7362541;19;20037;-61
2023/07/19 03:38:34;;;;;;;4.10;0.68;;;;;;;19.06;79.80;100978.84;7355348;19;20007;-60
2023/07/19 03:41:06;;;;;;;3.63;0.40;;;;;;;19.09;79.88;100976.63;7358791;19;20018;-60
2023/07/19 03:43:34;;;;;;;3.55;0.50;;;;;;;19.09;79.75;100973.94;7359503;19;20086;-61
2023/07/19 03:46:01;;;;;;;5.47;0.70;;;;;;;19.04;80.06;100980.91;7361026;19;20033;-61
2023/07/19 03:48:28;;;;;;;3.03;0.40;;;;;;;19.04;80.15;100968.41;7356177;19;20050;-61
2023/07/19 03:51:00;;;;;;;2.60;0.35;;;;;;;19.05;80.19;100974.53;7360382;19;20094;-64
2023/07/19 03:53:36;;;;;;;3.57;0.80;;;;;;;19.03;80.35;100973.94;7358288;19;20395;-59
2023/07/19 03:56:03;;;;;;;3.35;0.70;;;;;;;19.02;80.46;100969.63;7362511;19;20840;-59
2023/07/19 03:58:30;;;;;;;6.07;0.70;;;;;;;18.98;80.29;100968.41;7362641;19;20150;-62
2023/07/19 04:00:59;;;;;;;4.88;0.50;;;;;;;18.97;81.32;100964.91;7360610;19;20102;-61
2023/07/19 04:03:27;;;;;;;1.90;0.50;;;;;;;18.97;81.28;100961.41;7361501;19;20486;-62
2023/07/19 04:05:54;;;;;;;3.58;0.47;;;;;;;18.97;81.31;100953.41;7361811;19;20019;-60
2023/07/19 04:08:21;;;;;;;4.43;0.52;;;;;;;18.98;81.22;100952.38;7357654;19;20033;-61
2023/07/19 04:10:48;;;;;;;3.38;0.50;;;;;;;19.01;80.96;100960.78;7359154;19;20041;-60
2023/07/19 04:13:15;;;;;;;4.63;0.60;;;;;;;19.06;80.97;100962.84;7359609;19;20038;-60
2023/07/19 04:15:43;;;;;;;5.10;0.50;;;;;;;19.08;80.77;100961.63;7362758;19;20011;-60
2023/07/19 04:18:10;;;;;;;5.97;0.60;;;;;;;19.06;80.78;100961.00;7359836;19;20022;-60
2023/07/19 04:20:37;;;;;;;5.10;0.55;;;;;;;19.01;80.82;100963.47;7362675;19;20018;-60
2023/07/19 04:23:07;;;;;;;2.83;0.55;;;;;;;19.02;81.09;100961.63;7360434;19;20140;-61
2023/07/19 04:25:34;;;;;;;4.55;0.50;;;;;;;19.00;81.01;100958.31;7360489;19;20574;-61
2023/07/19 04:28:01;;;;;;;6.18;1.10;;;;;;;19.01;81.49;100954.63;7359987;19;20014;-62
2023/07/19 04:30:28;;;;;;;4.82;0.50;;;;;;;19.05;81.82;100964.69;7361455;19;20460;-60
2023/07/19 04:32:55;;;;;;;3.28;0.52;;;;;;;19.07;81.46;100953.81;7361221;19;20764;-61
2023/07/19 04:35:22;;;;;;;2.58;0.47;;;;;;;19.09;81.31;100957.94;7359104;19;20086;-60
2023/07/19 04:37:50;;;;;;;5.15;0.50;;;;;;;19.11;81.35;100957.72;7356676;19;20447;-62
2023/07/19 04:40:17;;;;;;;1.60;0.50;;;;;;;19.10;81.39;100950.72;7358978;19;20086;-60
2023/07/19 04:42:44;;;;;;;3.38;1.15;;;;;;;19.11;81.37;100958.53;7357725;19;20033;-63
2023/07/19 04:45:13;;;;;;;7.35;0.70;;;;;;;19.10;81.60;100956.88;7360790;19;20011;-60
2023/07/19 04:47:40;;;;;;;3.13;0.57;;;;;;;19.11;82.02;100952.38;7359416;19;20031;-60
2023/07/19 04:50:09;;;;;;;3.33;0.80;;;;;;;19.07;82.29;100951.97;7357196;19;21737;-60
2023/07/19 04:52:36;;;;;;;5.68;0.60;;;;;;;19.07;82.90;100954.66;7355425;19;20035;-61
2023/07/19 04:55:05;;;;;;;5.90;0.70;;;;;;;19.04;83.29;100957.72;7356124;19;20506;-61
2023/07/19 04:57:32;;;;;;;5.93;0.60;;;;;;;19.05;83.99;100956.69;7358109;19;20114;-61
2023/07/19 04:59:59;;;;;;;3.95;0.65;;;;;;;19.08;84.28;100958.13;7363039;19;20050;-61
2023/07/19 05:02:26;;;;;;;5.50;0.80;;;;;;;19.07;84.49;100965.31;7366692;19;21056;-61
2023/07/19 05:04:53;;;;;;;3.97;0.63;;;;;;;19.07;84.36;100951.16;7367073;19;20018;-61
2023/07/19 05:07:20;;;;;;;3.40;0.60;;;;;;;19.08;84.65;100958.13;7365485;19;20018;-60
2023/07/19 05:09:47;;;;;;;3.58;0.70;;;;;;;19.10;84.92;100964.06;7366285;19;20023;-61
2023/07/19 05:12:15;;;;;;;5.03;0.68;;;;;;;19.10;85.88;100966.75;7367495;19;20399;-60
2023/07/19 05:14:41;;;;;;;3.08;0.80;;;;;;;19.09;86.25;100965.94;7368574;19;20018;-60
2023/07/19 05:17:08;;;;;;;3.10;0.70;;;;;;;19.04;87.01;100964.91;7362919;19;20097;-61
2023/07/19 05:19:35;;;;;;;3.47;0.70;;;;;;;18.99;87.93;100965.53;7366844;19;21736;-60
2023/07/19 05:22:03;;;;;;;5.35;1.45;;;;;;;18.99;88.90;100978.03;7365833;19;20017;-60
2023/07/19 05:24:31;;;;;;;2.50;0.73;;;;;;;18.99;89.60;100978.88;7363446;19;20097;-62
2023/07/19 05:26:59;;;;;;;3.10;0.77;;;;;;;18.90;89.68;100977.41;7366427;19;20105;-60
2023/07/19 05:29:27;;;;;;;2.95;0.80;;;;;;;18.87;90.24;100977.00;7366646;19;21847;-61
2023/07/19 05:31:54;;;;;;;4.97;1.02;;;;;;;18.89;91.72;100989.13;7357396;19;20082;-61
2023/07/19 05:34:22;;;;;;;3.25;0.90;;;;;;;18.89;92.55;100983.78;7367378;19;21121;-61
2023/07/19 05:36:49;;;;;;;4.03;1.20;;;;;;;18.85;92.78;100979.84;7367293;19;20018;-58
2023/07/19 05:39:16;;;;;;;5.97;1.15;;;;;;;18.80;93.10;100985.78;7363632;19;20889;-61
2023/07/19 05:41:43;;;;;;;7.25;1.40;;;;;;;18.76;93.41;100987.22;7364979;19;21072;-60
2023/07/19 05:44:10;;;;;;;7.68;1.27;;;;;;;18.77;94.31;100990.72;7361957;19;20029;-60
2023/07/19 05:46:38;;;;;;;3.75;0.90;;;;;;;18.78;94.81;101001.19;7362343;19;20026;-59
2023/07/19 05:49:05;;;;;;;3.55;1.00;;;;;;;18.75;94.57;100990.91;7361834;19;20018;-60
2023/07/19 05:51:32;;;;;;;4.80;1.00;;;;;;;18.74;94.52;100991.94;7362996;19;20098;-59
2023/07/19 05:54:00;;;;;;;4.60;1.05;;;;;;;18.69;94.29;100997.03;7360733;19;20021;-61
2023/07/19 05:56:27;;;;;;;4.25;1.02;;;;;;;18.63;94.50;100989.88;7364298;19;20502;-60
2023/07/19 05:58:54;;;;;;;4.82;1.00;;;;;;;18.60;94.86;100997.44;7367309;19;21212;-60
2023/07/19 06:01:21;;;;;;;4.43;1.55;;;;;;;18.60;95.17;100994.78;7365090;19;20018;-62
2023/07/19 06:03:52;;;;;;;5.30;1.45;;;;;;;18.61;95.49;100993.75;7359296;19;20056;-61
2023/07/19 06:06:20;;;;;;;3.42;1.10;;;;;;;18.60;95.60;100992.94;7367668;19;20436;-60
2023/07/19 06:08:47;;;;;;;7.28;2.20;;;;;;;18.63;95.88;101007.72;7362006;19;20035;-60
2023/07/19 06:11:14;;;;;;;5.72;1.10;;;;;;;18.67;96.63;101003.63;7364782;19;20154;-60
2023/07/19 06:13:42;;;;;;;4.25;1.20;;;;;;;18.67;96.43;101008.94;7364737;19;20081;-61
2023/07/19 06:16:09;;;;;;;6.28;1.52;;;;;;;18.66;96.37;101004.63;7366627;19;20590;-59
2023/07/19 06:18:36;;;;;;;4.38;1.20;;;;;;;18.68;96.10;101011.44;7364402;19;20482;-57
2023/07/19 06:21:03;;;;;;;5.18;1.45;;;;;;;18.69;96.45;101005.03;7360058;19;20010;-59
2023/07/19 06:23:41;;;;;;;5.75;1.27;;;;;;;18.73;96.38;101005.50;7359521;19;20377;-61
2023/07/19 06:26:10;;;;;;;7.72;1.60;;;;;;;18.75;96.17;101001.59;7364879;19;20482;-61
2023/07/19 06:28:37;;;;;;;3.28;1.20;;;;;;;18.78;96.08;100998.53;7363084;19;20010;-60
2023/07/19 06:31:04;;;;;;;8.32;1.40;;;;;;;18.78;95.72;101003.03;7363903;19;20011;-63
2023/07/19 06:33:35;;;;;;;5.78;1.45;;;;;;;18.80;95.84;101007.13;7359124;19;20017;-61
2023/07/19 06:36:02;;;;;;;5.93;1.30;;;;;;;18.84;96.14;100998.75;7363333;19;20014;-61
2023/07/19 06:38:29;;;;;;;5.28;1.35;;;;;;;18.86;95.60;101005.50;7359841;19;20017;-61
2023/07/19 06:41:03;;;;;;;4.00;1.23;;;;;;;18.86;95.18;101005.50;7362476;19;20090;-60
2023/07/19 06:43:41;;;;;;;5.95;1.40;;;;;;;18.86;94.78;101007.34;7362589;19;20018;-60
2023/07/19 06:46:08;;;;;;;8.27;2.72;;;;;;;18.87;95.08;101009.81;7360399;19;21257;-60
2023/07/19 06:48:37;;;;;;;5.05;1.30;;;;;;;18.91;95.14;101013.72;7360182;19;20031;-60
2023/07/19 06:51:04;;;;;;;8.45;1.80;;;;;;;18.93;95.40;101014.34;7355669;19;20021;-61
2023/07/19 06:53:45;;;;;;;5.65;1.55;;;;;;;18.99;94.91;101018.06;7358785;19;20045;-62
2023/07/19 06:56:14;;;;;;;9.00;2.40;;;;;;;19.01;94.25;101013.31;7360032;19;21174;-61
2023/07/19 06:58:42;;;;;;;8.32;1.67;;;;;;;19.03;94.37;101017.44;7358643;19;21641;-60
2023/07/19 07:01:09;;;;;;;6.28;1.23;;;;;;;19.12;94.58;101016.22;7362884;19;20056;-61
2023/07/19 07:03:38;;;;;;;8.52;2.33;;;;;;;19.19;94.81;101019.72;7358816;19;21710;-61
2023/07/19 07:06:05;;;;;;;5.53;1.55;;;;;;;19.27;94.17;101018.69;7362767;19;20021;-59
2023/07/19 07:08:33;;;;;;;6.15;1.75;;;;;;;19.32;93.82;101010.06;7360856;19;20132;-61
2023/07/19 07:11:01;;;;;;;6.05;1.30;;;;;;;19.35;93.33;101017.66;7361741;19;20010;-60
2023/07/19 07:13:37;;;;;;;6.63;2.00;;;;;;;19.38;92.45;101022.59;7360065;19;20447;-61
2023/07/19 07:16:04;;;;;;;6.63;1.80;;;;;;;19.39;93.02;101025.06;7362129;19;20034;-60
2023/07/19 07:18:31;;;;;;;5.97;1.73;;;;;;;19.43;92.77;101022.78;7360310;19;20396;-60
2023/07/19 07:20:58;;;;;;;4.63;1.88;;;;;;;19.43;91.76;101017.44;7361936;19;20062;-61
2023/07/19 07:23:37;;;;;;;4.57;1.40;;;;;;;19.43;91.51;101028.13;7359230;19;20019;-61
2023/07/19 07:26:05;;;;;;;5.88;1.52;;;;;;;19.46;92.10;101025.06;7363040;19;20130;-60
2023/07/19 07:28:32;;;;;;;4.43;1.73;;;;;;;19.47;92.30;101032.06;7360774;19;20018;-60
2023/07/19 07:31:06;;;;;;;6.30;1.20;;;;;;;19.49;91.67;101025.50;7362436;19;20034;-60
2023/07/19 07:33:45;;;;;;;5.57;1.13;;;;;;;19.54;92.54;101025.69;7361959;19;20022;-61
2023/07/19 07:36:12;;;;;;;3.42;1.50;;;;;;;19.55;91.76;101024.69;7362423;19;20783;-60
2023/07/19 07:38:39;;;;;;;3.53;1.20;;;;;;;19.51;90.34;101025.28;7356931;19;20760;-59
2023/07/19 07:41:11;;;;;;;5.03;1.40;;;;;;;19.46;89.76;101036.56;7362429;19;20022;-59
2023/07/19 07:43:40;;;;;;;2.38;1.35;;;;;;;19.45;90.10;101028.78;7362785;19;20026;-59
2023/07/19 07:46:08;;;;;;;4.65;1.40;;;;;;;19.44;90.11;101029.78;7361394;19;20007;-66
2023/07/19 07:48:35;;;;;;;3.55;1.00;;;;;;;19.46;89.86;101033.06;7362492;19;21631;-62
2023/07/19 07:51:02;;;;;;;5.55;1.10;;;;;;;19.46;89.51;101033.91;7362198;19;20014;-61
2023/07/19 07:53:43;;;;;;;2.15;0.90;;;;;;;19.48;89.75;101029.19;7356740;19;20106;-61
2023/07/19 07:56:11;;;;;;;5.40;1.10;;;;;;;19.50;89.35;101032.47;7362972;19;20052;-59
2023/07/19 07:58:38;;;;;;;3.88;0.80;;;;;;;19.51;89.15;101036.78;7358732;19;20094;-57
2023/07/19 08:01:05;;;;;;;3.58;0.80;;;;;;;19.54;88.45;101039.03;7361554;19;20198;-61
2023/07/19 08:03:32;;;;;;;3.80;0.80;;;;;;;19.57;88.62;101035.97;7357412;19;20047;-60
2023/07/19 08:05:59;;;;;;;4.10;0.75;;;;;;;19.58;87.97;101036.78;7362695;19;20018;-60
2023/07/19 08:08:26;;;;;;;5.53;0.77;;;;;;;19.59;87.38;101041.09;7357205;19;20862;-61
2023/07/19 08:10:53;;;;;;;5.78;0.88;;;;;;;19.58;87.02;101034.09;7361040;19;20105;-61
2023/07/19 08:13:22;;;;;;;4.40;0.82;;;;;;;19.60;87.25;101030.22;7360470;19;20021;-61
2023/07/19 08:15:48;;;;;;;7.03;1.00;;;;;;;19.63;87.98;101043.16;7363275;19;20448;-60
2023/07/19 08:18:15;;;;;;;3.40;0.90;;;;;;;19.68;88.28;101033.69;7358922;19;20006;-60
2023/07/19 08:20:42;;;;;;;3.30;0.88;;;;;;;19.72;87.21;101034.91;7359570;19;20098;-60
2023/07/19 08:23:09;;;;;;;2.85;0.60;;;;;;;19.75;85.84;101030.00;7357759;19;20090;-60
2023/07/19 08:25:36;;;;;;;3.10;0.70;;;;;;;19.80;85.07;101021.34;7362034;19;20021;-60
2023/07/19 08:28:04;;;;;;;2.03;0.75;;;;;;;19.92;85.46;101041.03;7358180;19;20010;-60
2023/07/19 08:30:31;;;;;;;2.30;0.80;;;;;;;19.99;85.22;101036.50;7362100;19;20019;-60
2023/07/19 08:32:59;;;;;;;2.63;1.30;;;;;;;20.03;84.61;101032.38;7358786;19;20593;-62
2023/07/19 08:35:26;;;;;;;2.78;0.68;;;;;;;20.04;83.38;101028.69;7356386;19;20121;-63
2023/07/19 08:37:53;;;;;;;2.97;0.55;;;;;;;20.05;83.00;101036.50;7356075;19;20019;-62
2023/07/19 08:40:20;;;;;;;2.67;0.68;;;;;;;20.12;83.04;101036.47;7357031;19;20019;-61
2023/07/19 08:42:49;;;;;;;3.50;1.40;;;;;;;20.19;81.94;101036.47;7359941;19;20014;-62
2023/07/19 08:45:17;;;;;;;1.17;0.38;;;;;;;20.27;80.77;101025.50;7360983;19;20010;-62
2023/07/19 08:47:47;;;;;;;1.17;0.40;;;;;;;20.31;79.51;101027.63;7360843;19;20019;-62
2023/07/19 08:50:14;;;;;;;0.90;0.40;;;;;;;20.33;79.50;101027.38;7362904;19;20010;-60
2023/07/19 08:52:41;;;;;;;3.53;0.50;;;;;;;20.37;79.83;101023.25;7354903;19;20144;-62
2023/07/19 08:55:08;;;;;;;1.42;0.43;;;;;;;20.40;79.71;101022.84;7355558;19;20766;-62
2023/07/19 08:57:40;;;;;;;2.17;0.40;;;;;;;20.41;79.96;101022.63;7360161;19;20166;-62
2023/07/19 09:00:08;;;;;;;1.83;0.50;;;;;;;20.47;79.31;101023.63;7361912;19;20007;-61
2023/07/19 09:02:35;;;;;;;2.00;0.40;;;;;;;20.51;78.62;101034.72;7355589;19;20052;-62
2023/07/19 09:05:06;;;;;;;1.65;0.40;;;;;;;20.53;77.92;101025.44;7353665;19;21158;-60
2023/07/19 09:07:34;;;;;;;1.95;0.52;;;;;;;20.54;76.89;101029.75;7358146;19;20048;-62
2023/07/19 09:10:01;;;;;;;3.15;0.60;;;;;;;20.53;77.28;101021.94;7356602;19;20014;-62
2023/07/19 09:12:40;;;;;;;3.95;0.57;;;;;;;20.49;77.47;101026.91;7358057;19;20127;-68
2023/07/19 09:15:09;;;;;;;1.45;0.40;;;;;;;20.47;77.86;101032.47;7359479;19;20011;-62
2023/07/19 09:17:46;;;;;;;2.85;1.35;;;;;;;20.53;78.89;101033.47;7358153;19;20983;-61
2023/07/19 09:20:17;;;;;;;2.75;0.50;;;;;;;20.53;77.61;101035.31;7338173;19;20307;-62
2023/07/19 09:22:46;;;;;;;2.42;0.60;;;;;;;20.52;78.34;101029.13;7352842;19;20022;-63
2023/07/19 09:25:13;;;;;;;4.57;0.50;;;;;;;20.51;77.76;101024.84;7352288;19;20025;-62
2023/07/19 09:27:42;;;;;;;2.90;0.63;;;;;;;20.51;77.04;101034.72;7354984;19;20014;-62
2023/07/19 09:30:13;;;;;;;6.82;0.68;;;;;;;20.55;78.11;101027.91;7355786;19;20602;-62
2023/07/19 09:32:41;;;;;;;4.32;0.70;;;;;;;20.55;77.85;101022.56;7358595;19;20101;-62
2023/07/19 09:35:09;;;;;;;1.95;0.50;;;;;;;20.56;78.51;101022.34;7359378;19;20097;-62
2023/07/19 09:37:36;;;;;;;1.95;0.50;;;;;;;20.56;78.32;101026.88;7358133;19;20014;-62
2023/07/19 09:40:04;;;;;;;2.83;1.10;;;;;;;20.56;78.91;101021.53;7361214;19;20085;-61
2023/07/19 09:42:35;;;;;;;5.70;0.80;;;;;;;20.58;79.86;101024.81;7356765;19;20011;-62
2023/07/19 09:45:04;;;;;;;2.67;0.90;;;;;;;20.60;78.65;101028.09;7358329;19;20018;-63
2023/07/19 09:47:33;;;;;;;3.28;0.77;;;;;;;20.55;78.22;101034.09;7363841;19;20019;-62
2023/07/19 09:50:01;;;;;;;1.70;0.70;;;;;;;20.55;78.12;101028.72;7364971;19;20047;-62
2023/07/19 09:52:35;;;;;;;2.92;0.60;;;;;;;20.59;78.69;101032.63;7363496;19;20821;-61
2023/07/19 09:55:07;;;;;;;2.70;0.88;;;;;;;20.64;79.21;101029.31;7360112;19;20026;-64
2023/07/19 09:57:38;;;;;;;3.05;1.10;;;;;;;20.67;78.54;101026.22;7364758;19;20300;-62
2023/07/19 10:00:07;;;;;;;3.95;0.60;;;;;;;20.67;76.64;101024.34;7366518;19;20965;-62
2023/07/19 10:02:34;;;;;;;3.83;0.70;;;;;;;20.68;76.34;101025.97;7360988;19;20094;-62
2023/07/19 10:05:07;;;;;;;2.75;0.60;;;;;;;20.65;75.85;101034.44;7363449;19;20033;-61
2023/07/19 10:07:36;;;;;;;2.58;0.65;;;;;;;20.63;77.09;101041.84;7364532;19;20007;-61
2023/07/19 10:10:16;;;;;;;3.90;0.70;;;;;;;20.62;77.43;101039.41;7360698;19;20010;-62
2023/07/19 10:12:47;;;;;;;3.40;0.70;;;;;;;20.58;77.43;101039.00;7365411;19;20607;-62
2023/07/19 10:15:18;;;;;;;3.50;0.70;;;;;;;20.58;77.24;101040.84;7365984;19;20018;-62
2023/07/19 10:17:58;;;;;;;3.03;0.70;;;;;;;20.60;77.35;101041.47;7366298;19;20273;-62
2023/07/19 10:20:29;;;;;;;4.10;0.85;;;;;;;20.60;77.00;101044.13;7364900;19;20014;-63
2023/07/19 10:22:59;;;;;;;3.05;0.60;;;;;;;20.62;76.41;101042.09;7359929;19;20107;-61
2023/07/19 10:25:27;;;;;;;7.10;0.75;;;;;;;20.63;76.89;101038.34;7361161;19;20011;-63
2023/07/19 10:27:59;;;;;;;1.67;0.60;;;;;;;20.64;76.53;101040.81;7363484;19;20014;-63
2023/07/19 10:30:45;;;;;;;2.30;0.80;;;;;;;20.66;76.38;101035.28;7365661;19;20035;-62
2023/07/19 10:33:15;;;;;;;3.15;0.60;;;;;;;20.66;76.79;101043.28;7361624;19;20026;-62
2023/07/19 10:35:43;;;;;;;3.70;0.80;;;;;;;20.68;77.18;101036.69;7365274;19;20021;-62
2023/07/19 10:38:14;;;;;;;2.05;0.70;;;;;;;20.70;76.22;101042.66;7359191;19;20018;-62
2023/07/19 10:40:45;;;;;;;3.72;0.90;;;;;;;20.73;76.11;101046.72;7362424;19;20006;-63
2023/07/19 10:43:14;;;;;;;1.90;0.47;;;;;;;20.73;75.24;101042.22;7360974;19;20097;-61
2023/07/19 10:45:45;;;;;;;3.30;0.65;;;;;;;20.72;75.60;101045.13;7364946;19;20025;-63
2023/07/19 10:48:13;;;;;;;2.10;0.60;;;;;;;20.75;76.37;101056.19;7358962;19;20037;-62
2023/07/19 10:50:43;;;;;;;2.25;0.70;;;;;;;20.78;76.11;101055.75;7362789;19;20639;-60
2023/07/19 10:53:10;;;;;;;2.45;0.60;;;;;;;20.83;75.93;101050.59;7357245;19;20029;-62
2023/07/19 10:55:37;;;;;;;3.33;0.60;;;;;;;20.89;75.95;101046.25;7356563;19;20113;-62
2023/07/19 10:58:21;;;;;;;2.28;0.60;;;;;;;20.94;75.90;101049.09;7360097;19;20568;-63
2023/07/19 11:00:49;;;;;;;1.75;0.70;;;;;;;20.99;74.76;101054.63;7360123;19;20031;-63
2023/07/19 11:03:16;;;;;;;4.40;0.50;;;;;;;21.03;72.72;101050.47;7360887;19;20032;-62
2023/07/19 11:05:48;;;;;;;3.78;0.60;;;;;;;21.11;72.50;101044.06;7360855;19;20101;-61
2023/07/19 11:08:29;;;;;;;2.75;0.70;;;;;;;21.14;71.64;101046.31;7357839;19;20011;-62
2023/07/19 11:10:57;;;;;;;2.85;0.60;;;;;;;21.17;70.85;101046.72;7363590;19;20006;-63
2023/07/19 11:13:38;;;;;;;3.28;0.50;;;;;;;21.20;70.93;101046.28;7359407;19;20019;-62
2023/07/19 11:16:05;;;;;;;3.60;0.60;;;;;;;21.26;70.83;101053.44;7362497;19;20086;-61
2023/07/19 11:18:39;;;;;;;3.83;0.75;;;;;;;21.30;71.42;101041.25;7362290;19;20774;-62
2023/07/19 11:21:07;;;;;;;3.92;0.50;;;;;;;21.32;70.07;101054.44;7364879;19;20029;-62
2023/07/19 11:23:44;;;;;;;1.80;0.45;;;;;;;21.38;69.43;101045.53;7357323;19;20028;-62
2023/07/19 11:26:12;;;;;;;1.90;0.40;;;;;;;21.43;68.84;101047.56;7356404;19;20014;-62
2023/07/19 11:28:47;;;;;;;1.75;0.50;;;;;;;21.51;68.76;101052.63;7358207;19;20030;-64
2023/07/19 11:31:31;;;;;;;1.67;0.50;;;;;;;21.62;68.77;101055.41;7361525;19;20014;-62